createdAt,value
2022-11-23T00:02:23.983Z,43.20
2022-11-23T00:04:51.329Z,42.00
2022-11-23T00:07:18.244Z,40.10
2022-11-23T00:09:45.539Z,38.90
2022-11-23T00:12:12.431Z,43.60
2022-11-23T00:14:40.990Z,44.10
2022-11-23T00:17:07.957Z,46.70
2022-11-23T00:19:35.305Z,50.50
2022-11-23T00:22:02.168Z,57.80
2022-11-23T00:24:29.428Z,65.00
2022-11-23T00:26:56.296Z,71.40
2022-11-23T00:29:23.332Z,76.90
2022-11-23T00:31:51.476Z,86.20
2022-11-23T00:34:18.715Z,91.90
2022-11-23T00:36:45.607Z,99.90
2022-11-23T00:39:12.926Z,98.80
2022-11-23T00:41:39.799Z,99.90
2022-11-23T00:44:08.095Z,99.90
2022-11-23T00:46:35.251Z,99.90
2022-11-23T00:49:04.397Z,99.90
2022-11-23T00:51:33.793Z,99.90
2022-11-23T00:54:01.829Z,99.90
2022-11-23T00:56:30.092Z,99.90
2022-11-23T00:58:59.016Z,99.90
2022-11-23T01:01:27.803Z,99.90
2022-11-23T01:03:58.610Z,99.90
2022-11-23T01:06:29.385Z,99.90
2022-11-23T01:08:58.275Z,99.90
2022-11-23T01:11:27.460Z,99.90
2022-11-23T01:13:54.696Z,99.90
2022-11-23T01:16:24.526Z,99.90
2022-11-23T01:18:53.325Z,99.90
2022-11-23T01:21:20.550Z,99.90
2022-11-23T01:23:48.819Z,99.90
2022-11-23T01:26:16.020Z,99.90
2022-11-23T01:28:42.999Z,99.90
2022-11-23T01:31:12.373Z,99.90
2022-11-23T01:33:39.857Z,99.90
2022-11-23T01:36:10.482Z,99.90
2022-11-23T01:38:37.416Z,99.90
2022-11-23T01:41:06.750Z,99.90
2022-11-23T01:43:33.761Z,99.90
2022-11-23T01:46:02.292Z,99.90
2022-11-23T01:48:34.354Z,99.90
2022-11-23T01:51:03.970Z,99.90
2022-11-23T01:53:32.704Z,99.90
2022-11-23T01:56:02.287Z,99.90
2022-11-23T01:58:35.071Z,99.90
2022-11-23T02:01:02.952Z,99.90
2022-11-23T02:03:32.223Z,99.90
2022-11-23T02:06:03.088Z,99.90
2022-11-23T02:08:30.705Z,99.90
2022-11-23T02:10:58.564Z,99.90
2022-11-23T02:13:27.495Z,99.90
2022-11-23T02:15:58.100Z,99.90
2022-11-23T02:18:27.395Z,99.90
2022-11-23T02:20:55.357Z,99.90
2022-11-23T02:23:32.299Z,99.90
2022-11-23T02:26:06.448Z,99.90
2022-11-23T02:28:36.526Z,99.90
2022-11-23T02:31:03.675Z,99.90
2022-11-23T02:33:30.664Z,99.90
2022-11-23T02:36:00.636Z,99.90
2022-11-23T02:38:30.847Z,99.90
2022-11-23T02:40:58.687Z,99.90
2022-11-23T02:43:27.343Z,99.90
2022-11-23T02:45:56.550Z,99.90
2022-11-23T02:48:23.911Z,99.90
2022-11-23T02:50:52.896Z,99.90
2022-11-23T02:53:20.184Z,99.90
2022-11-23T02:55:47.141Z,99.90
2022-11-23T02:58:14.304Z,99.90
2022-11-23T03:00:42.752Z,99.90
2022-11-23T03:03:09.782Z,99.90
2022-11-23T03:05:36.642Z,99.90
2022-11-23T03:08:03.827Z,99.90
2022-11-23T03:10:30.722Z,99.90
2022-11-23T03:12:57.934Z,99.90
2022-11-23T03:15:25.195Z,99.90
2022-11-23T03:17:53.845Z,99.90
2022-11-23T03:20:21.059Z,99.90
2022-11-23T03:22:48.574Z,99.90
2022-11-23T03:25:15.609Z,99.90
2022-11-23T03:27:43.018Z,99.90
2022-11-23T03:30:10.752Z,99.90
2022-11-23T03:32:38.266Z,99.90
2022-11-23T03:35:07.926Z,99.90
2022-11-23T03:37:34.949Z,99.90
2022-11-23T03:40:01.906Z,99.90
2022-11-23T03:42:29.247Z,99.90
2022-11-23T03:44:56.208Z,99.90
2022-11-23T03:47:23.537Z,99.90
2022-11-23T03:49:50.407Z,99.90
2022-11-23T03:52:19.072Z,99.90
2022-11-23T03:54:46.997Z,99.90
2022-11-23T03:57:14.819Z,99.90
2022-11-23T03:59:41.644Z,99.90
2022-11-23T04:02:09.059Z,99.90
2022-11-23T04:04:36.182Z,99.90
2022-11-23T04:07:03.965Z,99.90
2022-11-23T04:09:32.475Z,99.90
2022-11-23T04:11:59.542Z,99.90
2022-11-23T04:14:26.813Z,99.90
2022-11-23T04:16:53.799Z,99.90
2022-11-23T04:19:21.103Z,99.90
2022-11-23T04:21:47.972Z,99.90
2022-11-23T04:24:15.193Z,99.90
2022-11-23T04:26:43.399Z,99.90
2022-11-23T04:29:10.430Z,99.90
2022-11-23T04:31:37.326Z,99.90
2022-11-23T04:34:04.237Z,99.90
2022-11-23T04:36:31.380Z,99.90
2022-11-23T04:38:58.727Z,99.90
2022-11-23T04:41:25.586Z,99.90
2022-11-23T04:43:54.161Z,99.90
2022-11-23T04:46:21.187Z,99.90
2022-11-23T04:48:48.543Z,99.90
2022-11-23T04:51:16.594Z,99.90
2022-11-23T04:53:43.947Z,99.90
2022-11-23T04:56:10.920Z,99.90
2022-11-23T04:58:38.291Z,99.90
2022-11-23T05:01:06.778Z,99.90
2022-11-23T05:03:37.411Z,99.90
2022-11-23T05:06:05.333Z,99.90
2022-11-23T05:08:32.726Z,99.90
2022-11-23T05:10:59.598Z,99.90
2022-11-23T05:13:26.798Z,99.90
2022-11-23T05:15:53.671Z,99.90
2022-11-23T05:18:22.219Z,99.90
2022-11-23T05:20:49.040Z,99.90
2022-11-23T05:23:16.213Z,99.90
2022-11-23T05:25:43.170Z,99.90
2022-11-23T05:28:38.444Z,99.90
2022-11-23T05:31:02.903Z,99.90
2022-11-23T05:33:31.232Z,99.90
2022-11-23T05:35:58.299Z,99.90
2022-11-23T05:38:25.535Z,99.90
2022-11-23T05:40:52.616Z,99.90
2022-11-23T05:43:19.786Z,99.90
2022-11-23T05:45:46.677Z,99.90
2022-11-23T05:48:13.837Z,99.90
2022-11-23T05:50:42.027Z,99.90
2022-11-23T05:53:09.482Z,99.90
2022-11-23T05:55:36.387Z,99.90
2022-11-23T05:58:04.114Z,99.90
2022-11-23T06:00:31.100Z,99.90
2022-11-23T06:03:00.285Z,99.90
2022-11-23T06:05:27.271Z,99.90
2022-11-23T06:07:56.347Z,99.90
2022-11-23T06:10:23.523Z,99.90
2022-11-23T06:12:52.045Z,99.90
2022-11-23T06:15:19.216Z,99.90
2022-11-23T06:17:46.675Z,99.90
2022-11-23T06:20:13.545Z,99.90
2022-11-23T06:22:40.727Z,99.90
2022-11-23T06:25:09.784Z,99.90
2022-11-23T06:27:37.096Z,99.90
2022-11-23T06:30:05.006Z,99.90
2022-11-23T06:32:32.263Z,99.90
2022-11-23T06:35:00.951Z,99.90
2022-11-23T06:37:28.364Z,99.90
2022-11-23T06:39:55.768Z,99.90
2022-11-23T06:42:38.423Z,99.90
2022-11-23T06:45:07.314Z,99.90
2022-11-23T06:47:34.645Z,99.90
2022-11-23T06:50:02.543Z,99.90
2022-11-23T06:52:29.764Z,99.90
2022-11-23T06:54:56.634Z,99.90
2022-11-23T06:57:25.372Z,99.90
2022-11-23T06:59:52.415Z,99.90
2022-11-23T07:02:19.435Z,99.90
2022-11-23T07:04:46.771Z,99.90
2022-11-23T07:07:13.873Z,99.90
2022-11-23T07:09:40.785Z,99.90
2022-11-23T07:12:08.100Z,99.90
2022-11-23T07:14:36.547Z,99.90
2022-11-23T07:17:03.485Z,99.90
2022-11-23T07:19:30.908Z,99.90
2022-11-23T07:21:58.107Z,99.90
2022-11-23T07:24:25.367Z,99.90
2022-11-23T07:26:52.209Z,99.90
2022-11-23T07:29:19.440Z,99.90
2022-11-23T07:31:47.738Z,99.90
2022-11-23T07:34:14.571Z,99.90
2022-11-23T07:36:41.514Z,99.90
2022-11-23T07:39:08.577Z,99.90
2022-11-23T07:41:35.584Z,99.90
2022-11-23T07:44:03.086Z,99.90
2022-11-23T07:46:29.944Z,99.90
2022-11-23T07:49:02.599Z,99.90
2022-11-23T07:51:29.744Z,99.90
2022-11-23T07:53:57.043Z,99.90
2022-11-23T07:56:24.265Z,99.90
2022-11-23T07:58:51.698Z,99.90
2022-11-23T08:01:19.474Z,99.90
2022-11-23T08:03:46.963Z,99.90
2022-11-23T08:06:16.485Z,99.90
2022-11-23T08:08:44.148Z,99.90
2022-11-23T08:11:14.649Z,99.90
2022-11-23T08:13:41.981Z,99.90
2022-11-23T08:16:09.249Z,68.60
2022-11-23T08:18:36.367Z,38.60
2022-11-23T08:21:04.065Z,39.40
2022-11-23T08:23:32.742Z,40.30
2022-11-23T08:25:59.686Z,45.60
2022-11-23T08:28:27.057Z,53.20
2022-11-23T08:30:53.920Z,53.00
2022-11-23T08:33:21.264Z,54.40
2022-11-23T08:35:48.166Z,51.30
2022-11-23T08:38:15.546Z,53.50
2022-11-23T08:40:43.777Z,55.20
2022-11-23T08:43:11.036Z,55.70
2022-11-23T08:45:38.077Z,58.00
2022-11-23T08:48:06.183Z,65.00
2022-11-23T08:50:34.680Z,66.80
2022-11-23T08:53:02.016Z,69.60
2022-11-23T08:55:29.239Z,68.90
2022-11-23T08:58:01.147Z,69.50
2022-11-23T09:00:28.918Z,69.30
2022-11-23T09:02:58.946Z,72.40
2022-11-23T09:05:26.456Z,75.70
2022-11-23T09:07:55.607Z,75.80
2022-11-23T09:10:23.372Z,69.50
2022-11-23T09:12:50.399Z,60.30
2022-11-23T09:15:18.766Z,52.90
2022-11-23T09:17:46.023Z,53.40
2022-11-23T09:20:13.000Z,50.70
2022-11-23T09:22:39.880Z,45.30
2022-11-23T09:25:07.687Z,41.60
2022-11-23T09:27:34.765Z,36.00
2022-11-23T09:30:01.698Z,34.00
2022-11-23T09:32:32.165Z,31.30
2022-11-23T09:35:01.586Z,25.70
2022-11-23T09:37:28.880Z,20.00
2022-11-23T09:39:57.922Z,17.80
2022-11-23T09:42:52.083Z,16.00
2022-11-23T09:45:26.430Z,8.40
2022-11-23T09:48:19.552Z,1.00
2022-11-23T09:50:48.408Z,1.00
2022-11-23T09:53:20.674Z,1.00
2022-11-23T09:55:50.392Z,1.00
2022-11-23T09:58:20.516Z,1.00
2022-11-23T10:00:51.004Z,1.00
2022-11-23T10:03:19.445Z,1.00
2022-11-23T10:05:57.865Z,1.00
2022-11-23T10:08:36.222Z,1.00
2022-11-23T10:11:28.997Z,1.00
2022-11-23T10:14:08.616Z,1.00
2022-11-23T10:16:43.607Z,1.00
2022-11-23T10:19:20.672Z,1.00
2022-11-23T10:21:55.487Z,1.00
2022-11-23T10:24:28.906Z,1.00
2022-11-23T10:26:55.837Z,1.00
2022-11-23T10:29:30.993Z,1.00
2022-11-23T10:31:59.028Z,1.00
2022-11-23T10:34:46.480Z,1.00
2022-11-23T10:37:15.352Z,1.00
2022-11-23T10:39:42.241Z,1.00
2022-11-23T10:42:19.304Z,1.00
2022-11-23T10:44:50.023Z,1.00
2022-11-23T10:47:34.839Z,1.00
2022-11-23T10:50:03.608Z,1.00
2022-11-23T10:52:32.939Z,1.00
2022-11-23T10:55:02.357Z,1.00
2022-11-23T10:57:42.381Z,1.00
2022-11-23T11:00:17.860Z,1.00
2022-11-23T11:02:47.000Z,1.00
2022-11-23T11:06:01.163Z,1.00
2022-11-23T11:08:18.071Z,1.00
2022-11-23T11:10:49.880Z,1.00
2022-11-23T11:13:32.185Z,1.00
2022-11-23T11:16:01.223Z,1.00
2022-11-23T11:18:31.283Z,1.00
2022-11-23T11:21:03.400Z,1.00
2022-11-23T11:23:32.030Z,1.00
2022-11-23T11:26:09.029Z,1.00
2022-11-23T11:28:40.580Z,1.00
2022-11-23T11:31:33.928Z,1.00
2022-11-23T11:34:07.839Z,1.00
2022-11-23T11:36:41.025Z,1.00
2022-11-23T11:39:18.847Z,1.00
2022-11-23T11:41:48.952Z,1.00
2022-11-23T11:44:21.301Z,1.00
2022-11-23T11:46:53.810Z,1.00
2022-11-23T11:49:26.718Z,1.00
2022-11-23T11:52:00.725Z,1.00
2022-11-23T11:54:33.781Z,1.00
2022-11-23T11:57:07.091Z,1.00
2022-11-23T11:59:43.131Z,1.00
2022-11-23T12:02:19.186Z,1.00
2022-11-23T12:04:54.632Z,1.00
2022-11-23T12:07:29.607Z,1.00
2022-11-23T12:10:04.908Z,1.00
2022-11-23T12:12:34.507Z,1.00
2022-11-23T12:15:01.716Z,1.00
2022-11-23T12:17:51.733Z,1.00
2022-11-23T12:20:26.654Z,1.00
2022-11-23T12:23:06.063Z,1.00
2022-11-23T12:25:36.916Z,1.00
2022-11-23T12:28:17.209Z,1.00
2022-11-23T12:30:55.022Z,1.00
2022-11-23T12:36:41.800Z,1.00
2022-11-23T12:39:25.075Z,1.00
2022-11-23T12:41:59.982Z,1.00
2022-11-23T12:44:56.156Z,1.00
2022-11-23T12:47:33.543Z,1.00
2022-11-23T12:50:13.423Z,1.00
2022-11-23T12:52:57.960Z,1.00
2022-11-23T12:55:35.115Z,1.00
2022-11-23T12:58:06.690Z,1.00
2022-11-23T13:00:37.770Z,1.00
2022-11-23T13:03:37.467Z,1.00
2022-11-23T13:06:34.521Z,1.00
2022-11-23T13:09:29.781Z,1.00
2022-11-23T13:12:15.162Z,1.00
2022-11-23T13:14:49.741Z,1.00
2022-11-23T13:17:25.611Z,1.00
2022-11-23T13:20:20.045Z,1.00
2022-11-23T13:22:47.623Z,1.00
2022-11-23T13:25:23.123Z,1.00
2022-11-23T13:28:02.404Z,1.00
2022-11-23T13:31:13.815Z,1.00
2022-11-23T13:33:37.408Z,1.00
2022-11-23T13:36:10.399Z,1.00
2022-11-23T13:38:42.331Z,1.00
2022-11-23T13:41:54.447Z,1.00
2022-11-23T13:44:26.569Z,1.00
2022-11-23T13:47:00.470Z,1.00
2022-11-23T13:49:33.176Z,1.00
2022-11-23T13:52:31.624Z,1.00
2022-11-23T13:55:09.750Z,1.00
2022-11-23T13:57:43.340Z,1.00
2022-11-23T14:00:49.714Z,1.00
2022-11-23T14:03:48.640Z,1.00
2022-11-23T14:06:21.934Z,1.00
2022-11-23T14:08:52.636Z,1.00
2022-11-23T14:11:23.976Z,1.00
2022-11-23T14:13:55.130Z,1.00
2022-11-23T14:16:52.855Z,1.00
2022-11-23T14:19:27.486Z,1.00
2022-11-23T14:22:04.193Z,1.00
2022-11-23T14:24:58.709Z,1.00
2022-11-23T14:27:47.528Z,1.00
2022-11-23T14:30:36.220Z,1.00
2022-11-23T14:33:14.859Z,1.00
2022-11-23T14:35:49.554Z,1.00
2022-11-23T14:38:48.638Z,1.00
2022-11-23T14:41:19.513Z,1.00
2022-11-23T14:43:47.822Z,1.00
2022-11-23T14:46:16.599Z,1.00
2022-11-23T14:48:45.806Z,1.00
2022-11-23T14:51:15.863Z,1.00
2022-11-23T14:53:47.214Z,1.00
2022-11-23T14:56:27.807Z,1.00
2022-11-23T14:58:58.702Z,1.00
2022-11-23T15:01:26.528Z,1.00
2022-11-23T15:03:59.076Z,1.00
2022-11-23T15:06:30.362Z,1.00
2022-11-23T15:09:05.181Z,1.00
2022-11-23T15:11:36.723Z,1.00
2022-11-23T15:14:16.160Z,1.00
2022-11-23T15:16:43.910Z,1.00
2022-11-23T15:19:20.107Z,1.00
2022-11-23T15:21:47.499Z,1.00
2022-11-23T15:24:22.194Z,1.00
2022-11-23T15:26:49.990Z,1.00
2022-11-23T15:29:35.345Z,1.00
2022-11-23T15:32:29.172Z,1.00
2022-11-23T15:34:57.518Z,1.00
2022-11-23T15:37:25.784Z,1.00
2022-11-23T15:39:55.042Z,1.00
2022-11-23T15:42:24.912Z,1.00
2022-11-23T15:44:53.059Z,1.00
2022-11-23T15:47:27.189Z,1.00
2022-11-23T15:50:00.985Z,1.00
2022-11-23T15:52:31.489Z,1.00
2022-11-23T15:55:07.526Z,1.00
2022-11-23T15:57:37.058Z,1.00
2022-11-23T16:00:06.199Z,1.00
2022-11-23T16:02:33.362Z,1.00
2022-11-23T16:05:12.330Z,1.00
2022-11-23T16:07:51.147Z,1.00
2022-11-23T16:10:20.233Z,1.00
2022-11-23T16:12:49.963Z,1.00
2022-11-23T16:15:38.890Z,1.00
2022-11-23T16:18:17.739Z,1.00
2022-11-23T16:20:48.940Z,1.00
2022-11-23T16:23:19.885Z,1.00
2022-11-23T16:25:55.346Z,1.00
2022-11-23T16:28:28.047Z,1.00
2022-11-23T16:30:55.132Z,1.00
2022-11-23T16:33:22.620Z,1.00
2022-11-23T16:35:51.210Z,1.00
2022-11-23T16:38:19.030Z,1.00
2022-11-23T16:40:48.144Z,1.00
2022-11-23T16:43:16.576Z,1.40
2022-11-23T16:45:45.651Z,3.80
2022-11-23T16:48:39.239Z,4.90
2022-11-23T16:51:10.852Z,3.90
2022-11-23T16:54:08.226Z,6.90
2022-11-23T16:56:28.796Z,8.60
2022-11-23T16:58:56.477Z,11.00
2022-11-23T17:01:25.657Z,13.20
2022-11-23T17:03:53.879Z,14.90
2022-11-23T17:06:23.101Z,18.70
2022-11-23T17:09:08.138Z,19.40
2022-11-23T17:11:39.120Z,19.70
2022-11-23T17:14:06.513Z,20.20
2022-11-23T17:16:34.348Z,20.00
2022-11-23T17:19:01.759Z,19.90
2022-11-23T17:21:30.242Z,19.50
2022-11-23T17:23:57.774Z,20.40
2022-11-23T17:26:33.281Z,22.20
2022-11-23T17:29:02.219Z,21.60
2022-11-23T17:31:29.410Z,23.20
2022-11-23T17:33:56.909Z,25.60
2022-11-23T17:36:24.736Z,30.80
2022-11-23T17:38:54.191Z,32.40
2022-11-23T17:41:21.158Z,32.30
2022-11-23T17:43:48.140Z,28.40
2022-11-23T17:46:18.829Z,28.60
2022-11-23T17:48:47.020Z,29.30
2022-11-23T17:51:14.383Z,29.20
2022-11-23T17:53:41.874Z,36.70
2022-11-23T17:56:17.078Z,32.20
2022-11-23T17:58:44.695Z,34.20
2022-11-23T18:01:13.857Z,31.60
2022-11-23T18:03:41.413Z,31.90
2022-11-23T18:06:14.251Z,33.10
2022-11-23T18:08:41.806Z,33.70
2022-11-23T18:11:09.064Z,33.60
2022-11-23T18:13:38.507Z,33.10
2022-11-23T18:16:06.058Z,35.30
2022-11-23T18:18:33.457Z,37.20
2022-11-23T18:21:00.488Z,38.10
2022-11-23T18:23:28.127Z,39.10
2022-11-23T18:25:59.322Z,42.10
2022-11-23T18:28:26.888Z,43.90
2022-11-23T18:30:56.280Z,45.60
2022-11-23T18:33:24.296Z,48.20
2022-11-23T18:35:51.583Z,48.60
2022-11-23T18:38:18.586Z,56.40
2022-11-23T18:40:45.453Z,53.20
2022-11-23T18:43:12.340Z,57.10
2022-11-23T18:45:39.288Z,57.80
2022-11-23T18:48:09.221Z,61.70
2022-11-23T18:50:36.980Z,64.20
2022-11-23T18:53:03.970Z,61.20
2022-11-23T18:55:30.825Z,64.00
2022-11-23T18:57:57.810Z,68.70
2022-11-23T19:00:25.386Z,70.60
2022-11-23T19:02:53.211Z,71.80
2022-11-23T19:05:21.802Z,75.20
2022-11-23T19:07:49.419Z,75.20
2022-11-23T19:10:18.277Z,75.20
2022-11-23T19:12:46.645Z,73.90
2022-11-23T19:15:13.967Z,70.90
2022-11-23T19:17:40.945Z,69.40
2022-11-23T19:20:09.852Z,64.80
2022-11-23T19:22:38.241Z,61.20
2022-11-23T19:25:06.096Z,59.80
2022-11-23T19:27:35.890Z,62.00
2022-11-23T19:30:04.156Z,64.50
2022-11-23T19:32:32.086Z,61.10
2022-11-23T19:34:59.182Z,62.70
2022-11-23T19:37:26.758Z,66.50
2022-11-23T19:39:55.041Z,68.80
2022-11-23T19:42:22.143Z,68.70
2022-11-23T19:44:49.528Z,72.00
2022-11-23T19:47:22.507Z,73.70
2022-11-23T19:49:51.017Z,76.10
2022-11-23T19:52:18.041Z,79.70
2022-11-23T19:54:44.985Z,79.40
2022-11-23T19:57:13.548Z,79.70
2022-11-23T19:59:40.492Z,77.80
2022-11-23T20:02:08.822Z,76.80
2022-11-23T20:04:35.912Z,74.80
2022-11-23T20:07:03.503Z,69.20
2022-11-23T20:09:30.819Z,69.70
2022-11-23T20:11:58.066Z,68.70
2022-11-23T20:14:26.345Z,67.20
2022-11-23T20:16:53.253Z,68.10
2022-11-23T20:19:20.161Z,64.00
2022-11-23T20:21:47.485Z,64.40
2022-11-23T20:24:14.610Z,65.80
2022-11-23T20:26:42.334Z,58.80
2022-11-23T20:29:09.642Z,64.60
2022-11-23T20:31:38.808Z,55.90
2022-11-23T20:34:08.154Z,50.10
2022-11-23T20:36:38.322Z,49.70
2022-11-23T20:39:06.877Z,47.80
2022-11-23T20:41:35.787Z,48.20
2022-11-23T20:44:04.113Z,44.40
2022-11-23T20:49:21.823Z,38.10
2022-11-23T20:51:49.160Z,35.10
2022-11-23T20:54:16.040Z,35.20
2022-11-23T20:56:43.417Z,33.90
2022-11-23T20:59:12.387Z,32.60
2022-11-23T21:01:42.735Z,30.30
2022-11-23T21:04:09.813Z,29.80
2022-11-23T21:06:39.731Z,27.60
2022-11-23T21:09:07.644Z,74.30
2022-11-23T21:11:53.359Z,79.00
2022-11-23T21:14:22.010Z,27.00
2022-11-23T21:16:55.318Z,10.30
2022-11-23T21:19:24.013Z,12.20
2022-11-23T21:21:52.884Z,15.50
2022-11-23T21:24:19.959Z,17.50
2022-11-23T21:26:47.522Z,19.90
2022-11-23T21:29:14.954Z,24.30
2022-11-23T21:31:43.630Z,27.40
2022-11-23T21:34:17.612Z,26.90
2022-11-23T21:36:45.038Z,29.00
2022-11-23T21:39:13.912Z,31.20
2022-11-23T21:41:41.538Z,33.10
2022-11-23T21:44:09.537Z,32.10
2022-11-23T21:46:37.920Z,32.00
2022-11-23T21:49:06.650Z,30.80
2022-11-23T21:51:34.766Z,27.20
2022-11-23T21:54:03.809Z,24.00
2022-11-23T21:56:32.629Z,22.50
2022-11-23T21:59:00.016Z,20.70
2022-11-23T22:01:29.641Z,21.80
2022-11-23T22:03:58.326Z,20.60
2022-11-23T22:06:25.368Z,19.30
2022-11-23T22:08:53.855Z,18.30
2022-11-23T22:11:23.528Z,18.20
2022-11-23T22:13:54.741Z,15.80
2022-11-23T22:16:23.252Z,14.70
2022-11-23T22:18:55.417Z,14.40
2022-11-23T22:21:24.657Z,13.50
2022-11-23T22:23:51.653Z,14.20
2022-11-23T22:26:19.675Z,11.80
2022-11-23T22:28:47.595Z,11.40
2022-11-23T22:31:17.971Z,12.60
2022-11-23T22:33:45.230Z,12.70
2022-11-23T22:36:13.691Z,11.70
2022-11-23T22:38:41.344Z,13.20
2022-11-23T22:41:10.552Z,12.60
2022-11-23T22:43:38.204Z,8.90
2022-11-23T22:46:07.513Z,8.50
2022-11-23T22:48:37.766Z,4.40
2022-11-23T22:51:05.591Z,3.90
2022-11-23T22:53:33.710Z,2.30
2022-11-23T22:56:02.585Z,3.10
2022-11-23T22:58:30.260Z,2.90
2022-11-23T23:00:57.821Z,2.90
2022-11-23T23:03:25.029Z,2.70
2022-11-23T23:05:57.781Z,9.50
2022-11-23T23:08:25.839Z,6.70
2022-11-23T23:10:53.166Z,8.30
2022-11-23T23:13:21.311Z,8.80
2022-11-23T23:15:48.406Z,1.90
2022-11-23T23:18:16.572Z,1.00
2022-11-23T23:20:43.728Z,1.00
2022-11-23T23:23:12.175Z,1.00
2022-11-23T23:25:39.199Z,1.00
2022-11-23T23:28:06.525Z,1.00
2022-11-23T23:30:33.470Z,1.00
2022-11-23T23:33:00.832Z,1.00
2022-11-23T23:35:28.184Z,1.00
2022-11-23T23:37:55.432Z,1.00
2022-11-23T23:40:23.630Z,1.00
2022-11-23T23:42:50.543Z,1.00
2022-11-23T23:45:17.531Z,1.00
2022-11-23T23:47:44.526Z,1.00
2022-11-23T23:50:11.633Z,1.00
2022-11-23T23:52:39.335Z,1.00
2022-11-23T23:55:06.962Z,1.00
2022-11-23T23:57:36.012Z,1.00
